Pagina principale
METAR-TAF:

METAR-TAF

Aeroporti :

Ingolstadt, Germania

latitudine: 48-43N, longitudine: 011-32E, altezza: 367 m

Osservazione

Il bollettino è stato emesso 1 ora e 7 minuti fa, alle 00:20 UTC
Vento 5 kt da est/nord-est
Temperature 4°C
Umidità 75%
Pressione 1007 hPa

METAR: ETSI 270020Z AUTO 06005KT //// // ////// 04/00 Q1007 ///

Ora: 02:27 (01:27 UTC)

Previsione

Il bollettino è stato emesso 11 ore e 19 minuti fa, alle 14:08 UTC
Previsione valida dal 26 alle 15 UTC al 26 alle 24 UTC
Vento 5 kt da est/nord-est
Visibilità 10 km o più
Nubi sparse ad un'altezza di 6000 ft
Nuvoloso ad un'altezza di 8000 ft

TAF: ETSI 261408Z 2615/2624 06005KT 9999 NSW SCT060 BKN080

Osservazioni e previsioni meteorologiche di più di 4000 aeroporti (messaggi METAR e TAF).

Le stazioni disponibili sono rappresentate dai dischi gialli e rossi sulla carta.

Puntare il mouse per vedere il nome della stazione.

Clicca sopra per visualizzare le osservazioni e previsioni meteorologiche.

Per cambiare la mappa : fare clic sui pulsanti verdi con una croce nera per ingrandire, il pulsante verde con un trattino per diminuire, o sulla freccia verde per le mappe adiacenti.


METAR-TAF: